Aérodrome :
LOGIN :

S'inscrire | Disclaimer

   EN    FR    IT 

 










Légende :    VFR   VFR Marginal   IFR   IFR Intensif   IFR Très Intensif
Visi : 
Plafond : 
>= 8 km
>= 3000ft
5 à 8 km
1000 à 3000 ft
1500m à 5 km
500 à 1000 ft
800 à 1500m
200 à 500 ft
< 800m
< 200 ft
Symboles :   Orages  Brouillard  Fortes neiges  Fortes précipitations  Vent > 20 kt
SIGMETs :   Divers  Orages  Givrage  Turbulence  Onde Orograph.  Cendres Volcan.







- Altitude de l'aérodrome : 1416 ft
- Code IATA : ZRH


LSZH - Zurich

DERNIER METAR :
  • 162250Z 00000KT 9999 FEW050CB FEW110 BKN140 19/17 Q1021 TEMPO SHRA

METARs EXPIRÉS :
  • 162220Z VRB01KT CAVOK 19/17 Q1021 TEMPO SHRA
  • 162150Z VRB01KT CAVOK 20/16 Q1021 NOSIG
  • 162120Z VRB01KT CAVOK 19/16 Q1021 NOSIG
  • 162050Z 00000KT CAVOK 19/16 Q1021 NOSIG
  • 162020Z VRB01KT CAVOK 19/16 Q1021 NOSIG

TAF AMD TAF LSZH
Valide du 16 à 22h jusqu'au 18 à 03h UTC


162240Z 1622/1803 VRB03KT CAVOK TX28/1715Z TN15/1704Z
TEMPO 1623/1702 SHRA SCT050TCU BKN100
PROB30
TEMPO 1623/1702 28015G30KT 4000 TSRA SCT050CB
PROB40 1704/1707 4000 MIFG FEW003
ATIS : +41 43 816 2295 (DEP) +41 43 816 2294 (ARR)
Pas de NOTAMs connus pour ce terrain.



MET'MAP, la Météo Aéronautique d'un coup d'oeil ! - Copyright ORBIFLY Décembre 2007 - Disclaimer

ORBIFLY MET'MAP TEAM :

Programmation & Développement : Alexandra Zaïnal
Conception & Développement : Baudouin d'Aumeries
Co-Programmation & Développement : Marc-Olivier Méhu
Soutien technique & logistique : Manuel Goepfert

Contact : metmap@orbifly.com




SOURCES & CREDITS :

   NOAA